sensor_id;sensor_type;location;lat;lon;timestamp;temperature;humidity
81315;DHT22;75773;52.534;5.686;2024-02-21T00:02:22;8.60;84.20
81315;DHT22;75773;52.534;5.686;2024-02-21T00:04:52;8.60;84.20
81315;DHT22;75773;52.534;5.686;2024-02-21T00:07:24;8.60;84.10
81315;DHT22;75773;52.534;5.686;2024-02-21T00:09:53;8.60;84.10
81315;DHT22;75773;52.534;5.686;2024-02-21T00:12:22;8.60;84.00
81315;DHT22;75773;52.534;5.686;2024-02-21T00:14:54;8.70;83.90
81315;DHT22;75773;52.534;5.686;2024-02-21T00:17:23;8.70;83.90
81315;DHT22;75773;52.534;5.686;2024-02-21T00:19:52;8.80;83.90
81315;DHT22;75773;52.534;5.686;2024-02-21T00:22:24;8.80;83.90
81315;DHT22;75773;52.534;5.686;2024-02-21T00:24:57;8.80;83.80
81315;DHT22;75773;52.534;5.686;2024-02-21T00:27:27;8.90;83.70
81315;DHT22;75773;52.534;5.686;2024-02-21T00:29:57;8.90;83.60
81315;DHT22;75773;52.534;5.686;2024-02-21T00:32:29;8.90;83.70
81315;DHT22;75773;52.534;5.686;2024-02-21T00:35:00;8.90;83.70
81315;DHT22;75773;52.534;5.686;2024-02-21T00:37:32;8.90;83.70
81315;DHT22;75773;52.534;5.686;2024-02-21T00:40:02;8.90;83.80
81315;DHT22;75773;52.534;5.686;2024-02-21T00:42:31;8.90;83.70
81315;DHT22;75773;52.534;5.686;2024-02-21T00:45:00;9.00;83.60
81315;DHT22;75773;52.534;5.686;2024-02-21T00:47:37;9.00;83.60
81315;DHT22;75773;52.534;5.686;2024-02-21T00:50:10;9.00;83.70
81315;DHT22;75773;52.534;5.686;2024-02-21T00:52:45;9.00;83.70
81315;DHT22;75773;52.534;5.686;2024-02-21T00:55:17;9.00;83.70
81315;DHT22;75773;52.534;5.686;2024-02-21T00:57:47;9.00;83.70
81315;DHT22;75773;52.534;5.686;2024-02-21T01:00:21;9.00;83.70
81315;DHT22;75773;52.534;5.686;2024-02-21T01:02:51;9.00;83.70
81315;DHT22;75773;52.534;5.686;2024-02-21T01:05:20;9.00;83.80
81315;DHT22;75773;52.534;5.686;2024-02-21T01:07:52;9.00;83.80
81315;DHT22;75773;52.534;5.686;2024-02-21T01:10:22;9.00;83.80
81315;DHT22;75773;52.534;5.686;2024-02-21T01:12:53;9.00;83.90
81315;DHT22;75773;52.534;5.686;2024-02-21T01:15:25;9.00;83.90
81315;DHT22;75773;52.534;5.686;2024-02-21T01:17:55;9.00;83.90
81315;DHT22;75773;52.534;5.686;2024-02-21T01:20:24;9.00;83.90
81315;DHT22;75773;52.534;5.686;2024-02-21T01:22:58;9.00;83.80
81315;DHT22;75773;52.534;5.686;2024-02-21T01:25:28;9.00;83.90
81315;DHT22;75773;52.534;5.686;2024-02-21T01:28:00;9.00;83.80
81315;DHT22;75773;52.534;5.686;2024-02-21T01:30:29;9.00;83.80
81315;DHT22;75773;52.534;5.686;2024-02-21T01:32:58;9.00;83.80
81315;DHT22;75773;52.534;5.686;2024-02-21T01:35:28;9.00;83.80
81315;DHT22;75773;52.534;5.686;2024-02-21T01:38:04;9.00;83.90
81315;DHT22;75773;52.534;5.686;2024-02-21T01:40:33;9.00;83.90
81315;DHT22;75773;52.534;5.686;2024-02-21T01:43:15;9.10;83.90
81315;DHT22;75773;52.534;5.686;2024-02-21T01:45:48;9.00;83.90
81315;DHT22;75773;52.534;5.686;2024-02-21T01:48:27;9.00;83.80
81315;DHT22;75773;52.534;5.686;2024-02-21T01:50:58;9.00;83.90
81315;DHT22;75773;52.534;5.686;2024-02-21T01:53:37;9.00;83.90
81315;DHT22;75773;52.534;5.686;2024-02-21T01:56:10;9.00;83.90
81315;DHT22;75773;52.534;5.686;2024-02-21T01:58:49;9.00;83.90
81315;DHT22;75773;52.534;5.686;2024-02-21T02:01:18;9.00;83.90
81315;DHT22;75773;52.534;5.686;2024-02-21T02:03:47;9.00;84.00
81315;DHT22;75773;52.534;5.686;2024-02-21T02:06:18;9.00;83.90
81315;DHT22;75773;52.534;5.686;2024-02-21T02:08:51;9.00;84.00
81315;DHT22;75773;52.534;5.686;2024-02-21T02:11:20;9.00;84.00
81315;DHT22;75773;52.534;5.686;2024-02-21T02:13:53;9.00;84.00
81315;DHT22;75773;52.534;5.686;2024-02-21T02:16:22;9.00;84.00
81315;DHT22;75773;52.534;5.686;2024-02-21T02:18:54;9.00;84.00
81315;DHT22;75773;52.534;5.686;2024-02-21T02:21:29;9.00;84.00
81315;DHT22;75773;52.534;5.686;2024-02-21T02:24:01;9.10;84.00
81315;DHT22;75773;52.534;5.686;2024-02-21T02:29:18;9.10;84.10
81315;DHT22;75773;52.534;5.686;2024-02-21T02:31:48;9.00;84.00
81315;DHT22;75773;52.534;5.686;2024-02-21T02:34:22;9.00;84.10
81315;DHT22;75773;52.534;5.686;2024-02-21T02:36:55;9.10;84.00
81315;DHT22;75773;52.534;5.686;2024-02-21T02:39:27;9.00;84.10
81315;DHT22;75773;52.534;5.686;2024-02-21T02:41:59;9.10;84.00
81315;DHT22;75773;52.534;5.686;2024-02-21T02:44:28;9.10;84.00
81315;DHT22;75773;52.534;5.686;2024-02-21T02:47:00;9.00;84.00
81315;DHT22;75773;52.534;5.686;2024-02-21T02:49:32;9.00;84.00
81315;DHT22;75773;52.534;5.686;2024-02-21T02:52:05;9.00;84.00
81315;DHT22;75773;52.534;5.686;2024-02-21T02:54:40;9.00;84.00
81315;DHT22;75773;52.534;5.686;2024-02-21T02:57:11;9.00;84.00
81315;DHT22;75773;52.534;5.686;2024-02-21T02:59:43;9.00;84.00
81315;DHT22;75773;52.534;5.686;2024-02-21T03:02:16;9.10;84.00
81315;DHT22;75773;52.534;5.686;2024-02-21T03:04:45;9.00;84.10
81315;DHT22;75773;52.534;5.686;2024-02-21T03:07:15;9.00;84.10
81315;DHT22;75773;52.534;5.686;2024-02-21T03:09:47;9.00;84.10
81315;DHT22;75773;52.534;5.686;2024-02-21T03:12:16;9.00;84.30
81315;DHT22;75773;52.534;5.686;2024-02-21T03:14:51;9.00;84.30
81315;DHT22;75773;52.534;5.686;2024-02-21T03:17:20;9.00;84.40
81315;DHT22;75773;52.534;5.686;2024-02-21T03:19:49;9.00;84.40
81315;DHT22;75773;52.534;5.686;2024-02-21T03:22:19;8.90;84.50
81315;DHT22;75773;52.534;5.686;2024-02-21T03:24:51;8.90;84.60
81315;DHT22;75773;52.534;5.686;2024-02-21T03:27:20;8.80;84.60
81315;DHT22;75773;52.534;5.686;2024-02-21T03:29:49;8.80;84.70
81315;DHT22;75773;52.534;5.686;2024-02-21T03:32:18;8.80;84.70
81315;DHT22;75773;52.534;5.686;2024-02-21T03:34:48;8.70;84.80
81315;DHT22;75773;52.534;5.686;2024-02-21T03:37:17;8.60;84.90
81315;DHT22;75773;52.534;5.686;2024-02-21T03:39:49;8.60;85.00
81315;DHT22;75773;52.534;5.686;2024-02-21T03:42:19;8.60;85.00
81315;DHT22;75773;52.534;5.686;2024-02-21T03:44:49;8.60;85.00
81315;DHT22;75773;52.534;5.686;2024-02-21T03:47:18;8.60;85.00
81315;DHT22;75773;52.534;5.686;2024-02-21T03:49:47;8.70;84.90
81315;DHT22;75773;52.534;5.686;2024-02-21T03:52:17;8.70;84.80
81315;DHT22;75773;52.534;5.686;2024-02-21T03:54:58;8.70;84.80
81315;DHT22;75773;52.534;5.686;2024-02-21T03:57:27;8.80;84.70
81315;DHT22;75773;52.534;5.686;2024-02-21T03:59:56;8.80;84.70
81315;DHT22;75773;52.534;5.686;2024-02-21T04:02:25;8.80;84.80
81315;DHT22;75773;52.534;5.686;2024-02-21T04:04:55;8.80;84.70
81315;DHT22;75773;52.534;5.686;2024-02-21T04:07:24;8.80;84.70
81315;DHT22;75773;52.534;5.686;2024-02-21T04:09:53;8.90;84.70
81315;DHT22;75773;52.534;5.686;2024-02-21T04:12:25;8.90;84.70
81315;DHT22;75773;52.534;5.686;2024-02-21T04:14:54;8.90;84.70
81315;DHT22;75773;52.534;5.686;2024-02-21T04:17:24;8.90;84.70
81315;DHT22;75773;52.534;5.686;2024-02-21T04:20:01;8.90;84.70
81315;DHT22;75773;52.534;5.686;2024-02-21T04:22:31;8.90;84.70
81315;DHT22;75773;52.534;5.686;2024-02-21T04:25:01;9.00;84.60
81315;DHT22;75773;52.534;5.686;2024-02-21T04:27:33;9.00;84.60
81315;DHT22;75773;52.534;5.686;2024-02-21T04:30:03;9.00;84.60
81315;DHT22;75773;52.534;5.686;2024-02-21T04:32:32;9.00;84.60
81315;DHT22;75773;52.534;5.686;2024-02-21T04:35:02;9.00;84.50
81315;DHT22;75773;52.534;5.686;2024-02-21T04:37:31;9.00;84.60
81315;DHT22;75773;52.534;5.686;2024-02-21T04:40:03;9.00;84.60
81315;DHT22;75773;52.534;5.686;2024-02-21T04:42:38;9.00;84.60
81315;DHT22;75773;52.534;5.686;2024-02-21T04:45:08;9.00;84.50
81315;DHT22;75773;52.534;5.686;2024-02-21T04:47:38;9.00;84.50
81315;DHT22;75773;52.534;5.686;2024-02-21T04:50:09;9.10;84.50
81315;DHT22;75773;52.534;5.686;2024-02-21T04:52:39;9.00;84.60
81315;DHT22;75773;52.534;5.686;2024-02-21T04:55:09;9.10;84.60
81315;DHT22;75773;52.534;5.686;2024-02-21T04:57:41;9.10;84.50
81315;DHT22;75773;52.534;5.686;2024-02-21T05:00:12;9.10;84.50
81315;DHT22;75773;52.534;5.686;2024-02-21T05:02:41;9.10;84.50
81315;DHT22;75773;52.534;5.686;2024-02-21T05:05:10;9.10;84.40
81315;DHT22;75773;52.534;5.686;2024-02-21T05:07:43;9.20;84.40
81315;DHT22;75773;52.534;5.686;2024-02-21T05:10:12;9.20;84.50
81315;DHT22;75773;52.534;5.686;2024-02-21T05:12:46;9.20;84.40
81315;DHT22;75773;52.534;5.686;2024-02-21T05:15:16;9.20;84.40
81315;DHT22;75773;52.534;5.686;2024-02-21T05:17:45;9.20;84.40
81315;DHT22;75773;52.534;5.686;2024-02-21T05:20:14;9.20;84.40
81315;DHT22;75773;52.534;5.686;2024-02-21T05:22:44;9.20;84.40
81315;DHT22;75773;52.534;5.686;2024-02-21T05:25:13;9.20;84.30
81315;DHT22;75773;52.534;5.686;2024-02-21T05:27:43;9.20;84.40
81315;DHT22;75773;52.534;5.686;2024-02-21T05:30:15;9.20;84.30
81315;DHT22;75773;52.534;5.686;2024-02-21T05:32:44;9.20;84.30
81315;DHT22;75773;52.534;5.686;2024-02-21T05:35:13;9.20;84.40
81315;DHT22;75773;52.534;5.686;2024-02-21T05:37:45;9.20;84.40
81315;DHT22;75773;52.534;5.686;2024-02-21T05:40:18;9.20;84.40
81315;DHT22;75773;52.534;5.686;2024-02-21T05:42:48;9.20;84.40
81315;DHT22;75773;52.534;5.686;2024-02-21T05:45:20;9.20;84.50
81315;DHT22;75773;52.534;5.686;2024-02-21T05:47:49;9.20;84.40
81315;DHT22;75773;52.534;5.686;2024-02-21T05:50:19;9.20;84.40
81315;DHT22;75773;52.534;5.686;2024-02-21T05:52:51;9.20;84.40
81315;DHT22;75773;52.534;5.686;2024-02-21T05:55:21;9.20;84.40
81315;DHT22;75773;52.534;5.686;2024-02-21T05:57:53;9.20;84.30
81315;DHT22;75773;52.534;5.686;2024-02-21T06:00:25;9.20;84.30
81315;DHT22;75773;52.534;5.686;2024-02-21T06:02:55;9.20;84.30
81315;DHT22;75773;52.534;5.686;2024-02-21T06:05:24;9.20;84.30
81315;DHT22;75773;52.534;5.686;2024-02-21T06:07:54;9.10;84.30
81315;DHT22;75773;52.534;5.686;2024-02-21T06:10:23;9.10;84.30
81315;DHT22;75773;52.534;5.686;2024-02-21T06:12:52;9.00;84.30
81315;DHT22;75773;52.534;5.686;2024-02-21T06:15:24;9.00;84.30
81315;DHT22;75773;52.534;5.686;2024-02-21T06:17:54;9.00;84.30
81315;DHT22;75773;52.534;5.686;2024-02-21T06:20:23;9.00;84.30
81315;DHT22;75773;52.534;5.686;2024-02-21T06:22:52;9.00;84.30
81315;DHT22;75773;52.534;5.686;2024-02-21T06:25:22;9.00;84.30
81315;DHT22;75773;52.534;5.686;2024-02-21T06:27:51;9.00;84.30
81315;DHT22;75773;52.534;5.686;2024-02-21T06:30:23;9.00;84.30
81315;DHT22;75773;52.534;5.686;2024-02-21T06:32:55;9.00;84.30
81315;DHT22;75773;52.534;5.686;2024-02-21T06:35:26;9.00;84.30
81315;DHT22;75773;52.534;5.686;2024-02-21T06:37:55;9.00;84.20
81315;DHT22;75773;52.534;5.686;2024-02-21T06:40:27;9.00;84.30
81315;DHT22;75773;52.534;5.686;2024-02-21T06:43:04;9.00;84.30
81315;DHT22;75773;52.534;5.686;2024-02-21T06:45:34;9.00;84.20
81315;DHT22;75773;52.534;5.686;2024-02-21T06:48:06;9.00;84.20
81315;DHT22;75773;52.534;5.686;2024-02-21T06:50:35;9.00;84.30
81315;DHT22;75773;52.534;5.686;2024-02-21T06:53:04;9.00;84.20
81315;DHT22;75773;52.534;5.686;2024-02-21T06:55:34;8.90;84.20
81315;DHT22;75773;52.534;5.686;2024-02-21T06:58:03;9.00;84.20
81315;DHT22;75773;52.534;5.686;2024-02-21T07:00:34;9.00;84.20
81315;DHT22;75773;52.534;5.686;2024-02-21T07:03:06;9.00;84.20
81315;DHT22;75773;52.534;5.686;2024-02-21T07:05:36;9.00;84.20
81315;DHT22;75773;52.534;5.686;2024-02-21T07:08:06;9.00;84.20
81315;DHT22;75773;52.534;5.686;2024-02-21T07:10:35;9.00;84.10
81315;DHT22;75773;52.534;5.686;2024-02-21T07:13:04;9.00;84.20
81315;DHT22;75773;52.534;5.686;2024-02-21T07:15:41;9.00;84.20
81315;DHT22;75773;52.534;5.686;2024-02-21T07:18:16;9.00;84.20
81315;DHT22;75773;52.534;5.686;2024-02-21T07:20:52;9.00;84.10
81315;DHT22;75773;52.534;5.686;2024-02-21T07:23:22;9.00;84.10
81315;DHT22;75773;52.534;5.686;2024-02-21T07:25:51;9.00;84.10
81315;DHT22;75773;52.534;5.686;2024-02-21T07:28:23;9.00;84.00
81315;DHT22;75773;52.534;5.686;2024-02-21T07:30:53;9.00;84.00
81315;DHT22;75773;52.534;5.686;2024-02-21T07:33:25;9.00;84.00
81315;DHT22;75773;52.534;5.686;2024-02-21T07:35:54;9.00;84.00
81315;DHT22;75773;52.534;5.686;2024-02-21T07:38:23;9.10;83.90
81315;DHT22;75773;52.534;5.686;2024-02-21T07:40:55;9.10;83.90
81315;DHT22;75773;52.534;5.686;2024-02-21T07:43:25;9.10;83.90
81315;DHT22;75773;52.534;5.686;2024-02-21T07:45:57;9.20;83.80
81315;DHT22;75773;52.534;5.686;2024-02-21T07:48:32;9.20;83.80
81315;DHT22;75773;52.534;5.686;2024-02-21T07:51:01;9.20;83.80
81315;DHT22;75773;52.534;5.686;2024-02-21T07:53:33;9.20;83.70
81315;DHT22;75773;52.534;5.686;2024-02-21T07:56:07;9.20;83.70
81315;DHT22;75773;52.534;5.686;2024-02-21T07:58:36;9.20;83.70
81315;DHT22;75773;52.534;5.686;2024-02-21T08:01:10;9.20;83.70
81315;DHT22;75773;52.534;5.686;2024-02-21T08:03:50;9.20;83.70
81315;DHT22;75773;52.534;5.686;2024-02-21T08:06:20;9.20;83.70
81315;DHT22;75773;52.534;5.686;2024-02-21T08:08:49;9.20;83.60
81315;DHT22;75773;52.534;5.686;2024-02-21T08:11:19;9.20;83.60
81315;DHT22;75773;52.534;5.686;2024-02-21T08:13:48;9.20;83.60
81315;DHT22;75773;52.534;5.686;2024-02-21T08:16:20;9.20;83.60
81315;DHT22;75773;52.534;5.686;2024-02-21T08:19:04;9.20;83.50
81315;DHT22;75773;52.534;5.686;2024-02-21T08:21:33;9.20;83.50
81315;DHT22;75773;52.534;5.686;2024-02-21T08:24:03;9.20;83.60
81315;DHT22;75773;52.534;5.686;2024-02-21T08:26:34;9.20;83.50
81315;DHT22;75773;52.534;5.686;2024-02-21T08:29:03;9.30;83.40
81315;DHT22;75773;52.534;5.686;2024-02-21T08:31:36;9.40;83.40
81315;DHT22;75773;52.534;5.686;2024-02-21T08:34:08;9.40;83.30
81315;DHT22;75773;52.534;5.686;2024-02-21T08:36:37;9.40;83.30
81315;DHT22;75773;52.534;5.686;2024-02-21T08:39:06;9.40;83.30
81315;DHT22;75773;52.534;5.686;2024-02-21T08:41:36;9.40;83.20
81315;DHT22;75773;52.534;5.686;2024-02-21T08:44:05;9.40;83.20
81315;DHT22;75773;52.534;5.686;2024-02-21T08:46:35;9.40;83.20
81315;DHT22;75773;52.534;5.686;2024-02-21T08:49:10;9.40;83.30
81315;DHT22;75773;52.534;5.686;2024-02-21T08:51:40;9.40;83.30
81315;DHT22;75773;52.534;5.686;2024-02-21T08:54:09;9.40;83.20
81315;DHT22;75773;52.534;5.686;2024-02-21T08:56:38;9.40;83.20
81315;DHT22;75773;52.534;5.686;2024-02-21T08:59:08;9.40;83.20
81315;DHT22;75773;52.534;5.686;2024-02-21T09:01:37;9.50;83.20
81315;DHT22;75773;52.534;5.686;2024-02-21T09:04:09;9.50;83.10
81315;DHT22;75773;52.534;5.686;2024-02-21T09:06:38;9.50;83.10
81315;DHT22;75773;52.534;5.686;2024-02-21T09:09:09;9.50;83.00
81315;DHT22;75773;52.534;5.686;2024-02-21T09:11:45;9.60;83.00
81315;DHT22;75773;52.534;5.686;2024-02-21T09:14:16;9.60;83.00
81315;DHT22;75773;52.534;5.686;2024-02-21T09:16:46;9.60;83.00
81315;DHT22;75773;52.534;5.686;2024-02-21T09:19:18;9.60;82.90
81315;DHT22;75773;52.534;5.686;2024-02-21T09:21:47;9.70;83.00
81315;DHT22;75773;52.534;5.686;2024-02-21T09:24:17;9.60;82.80
81315;DHT22;75773;52.534;5.686;2024-02-21T09:26:47;9.60;82.90
81315;DHT22;75773;52.534;5.686;2024-02-21T09:29:16;9.60;82.90
81315;DHT22;75773;52.534;5.686;2024-02-21T09:31:45;9.60;82.80
81315;DHT22;75773;52.534;5.686;2024-02-21T09:34:17;9.70;82.80
81315;DHT22;75773;52.534;5.686;2024-02-21T09:36:54;9.70;82.80
81315;DHT22;75773;52.534;5.686;2024-02-21T09:39:23;9.70;82.70
81315;DHT22;75773;52.534;5.686;2024-02-21T09:41:59;9.80;82.60
81315;DHT22;75773;52.534;5.686;2024-02-21T09:44:36;10.00;82.50
81315;DHT22;75773;52.534;5.686;2024-02-21T09:47:10;10.00;82.30
81315;DHT22;75773;52.534;5.686;2024-02-21T09:49:45;10.00;82.20
81315;DHT22;75773;52.534;5.686;2024-02-21T09:52:17;10.10;82.20
81315;DHT22;75773;52.534;5.686;2024-02-21T09:54:48;10.10;82.20
81315;DHT22;75773;52.534;5.686;2024-02-21T09:57:19;10.10;82.20
81315;DHT22;75773;52.534;5.686;2024-02-21T09:59:52;10.10;82.20
81315;DHT22;75773;52.534;5.686;2024-02-21T10:02:23;10.00;82.30
81315;DHT22;75773;52.534;5.686;2024-02-21T10:04:56;10.00;82.20
81315;DHT22;75773;52.534;5.686;2024-02-21T10:07:28;10.00;82.30
81315;DHT22;75773;52.534;5.686;2024-02-21T10:10:02;10.00;82.30
81315;DHT22;75773;52.534;5.686;2024-02-21T10:12:32;10.10;82.20
81315;DHT22;75773;52.534;5.686;2024-02-21T10:15:01;10.10;82.20
81315;DHT22;75773;52.534;5.686;2024-02-21T10:17:31;10.10;82.20
81315;DHT22;75773;52.534;5.686;2024-02-21T10:20:11;10.10;82.10
81315;DHT22;75773;52.534;5.686;2024-02-21T10:22:41;10.10;82.10
81315;DHT22;75773;52.534;5.686;2024-02-21T10:25:11;10.10;82.10
81315;DHT22;75773;52.534;5.686;2024-02-21T10:27:41;10.10;82.10
81315;DHT22;75773;52.534;5.686;2024-02-21T10:30:14;10.10;82.10
81315;DHT22;75773;52.534;5.686;2024-02-21T10:32:51;10.10;82.10
81315;DHT22;75773;52.534;5.686;2024-02-21T10:35:33;10.00;82.20
81315;DHT22;75773;52.534;5.686;2024-02-21T10:38:03;10.00;82.20
81315;DHT22;75773;52.534;5.686;2024-02-21T10:40:32;10.00;82.10
81315;DHT22;75773;52.534;5.686;2024-02-21T10:43:05;10.00;82.00
81315;DHT22;75773;52.534;5.686;2024-02-21T10:45:37;10.10;82.10
81315;DHT22;75773;52.534;5.686;2024-02-21T10:48:10;10.00;82.00
81315;DHT22;75773;52.534;5.686;2024-02-21T10:51:01;10.10;82.00
81315;DHT22;75773;52.534;5.686;2024-02-21T10:53:39;10.10;82.00
81315;DHT22;75773;52.534;5.686;2024-02-21T10:56:26;10.10;81.90
81315;DHT22;75773;52.534;5.686;2024-02-21T10:59:01;10.10;81.90
81315;DHT22;75773;52.534;5.686;2024-02-21T11:01:31;10.10;81.80
81315;DHT22;75773;52.534;5.686;2024-02-21T11:04:04;10.10;81.70
81315;DHT22;75773;52.534;5.686;2024-02-21T11:06:38;10.10;81.70
81315;DHT22;75773;52.534;5.686;2024-02-21T11:09:09;10.10;81.60
81315;DHT22;75773;52.534;5.686;2024-02-21T11:11:53;10.10;81.60
81315;DHT22;75773;52.534;5.686;2024-02-21T11:14:27;10.10;81.50
81315;DHT22;75773;52.534;5.686;2024-02-21T11:16:58;10.10;81.40
81315;DHT22;75773;52.534;5.686;2024-02-21T11:19:31;10.10;81.40
81315;DHT22;75773;52.534;5.686;2024-02-21T11:22:14;10.10;81.40
81315;DHT22;75773;52.534;5.686;2024-02-21T11:24:45;10.10;81.40
81315;DHT22;75773;52.534;5.686;2024-02-21T11:27:15;10.10;81.50
81315;DHT22;75773;52.534;5.686;2024-02-21T11:29:43;10.00;81.50
81315;DHT22;75773;52.534;5.686;2024-02-21T11:32:15;10.00;81.40
81315;DHT22;75773;52.534;5.686;2024-02-21T11:34:54;10.00;81.40
81315;DHT22;75773;52.534;5.686;2024-02-21T11:37:31;10.10;81.40
81315;DHT22;75773;52.534;5.686;2024-02-21T11:40:04;10.10;81.30
81315;DHT22;75773;52.534;5.686;2024-02-21T11:42:36;10.10;81.20
81315;DHT22;75773;52.534;5.686;2024-02-21T11:45:09;10.20;81.10
81315;DHT22;75773;52.534;5.686;2024-02-21T11:47:38;10.20;80.90
81315;DHT22;75773;52.534;5.686;2024-02-21T11:50:11;10.20;81.00
81315;DHT22;75773;52.534;5.686;2024-02-21T11:52:45;10.20;81.00
81315;DHT22;75773;52.534;5.686;2024-02-21T11:55:14;10.20;81.00
81315;DHT22;75773;52.534;5.686;2024-02-21T11:57:44;10.20;80.90
81315;DHT22;75773;52.534;5.686;2024-02-21T12:00:14;10.20;80.90
81315;DHT22;75773;52.534;5.686;2024-02-21T12:02:52;10.30;80.90
81315;DHT22;75773;52.534;5.686;2024-02-21T12:05:26;10.30;80.80
81315;DHT22;75773;52.534;5.686;2024-02-21T12:07:59;10.30;80.80
81315;DHT22;75773;52.534;5.686;2024-02-21T12:10:28;10.20;80.80
81315;DHT22;75773;52.534;5.686;2024-02-21T12:13:09;10.30;80.80
81315;DHT22;75773;52.534;5.686;2024-02-21T12:15:41;10.30;80.80
81315;DHT22;75773;52.534;5.686;2024-02-21T12:18:16;10.30;80.80
81315;DHT22;75773;52.534;5.686;2024-02-21T12:20:49;10.30;80.80
81315;DHT22;75773;52.534;5.686;2024-02-21T12:23:22;10.20;80.80
81315;DHT22;75773;52.534;5.686;2024-02-21T12:25:51;10.20;80.80
81315;DHT22;75773;52.534;5.686;2024-02-21T12:28:21;10.10;80.90
81315;DHT22;75773;52.534;5.686;2024-02-21T12:30:51;10.10;80.90
81315;DHT22;75773;52.534;5.686;2024-02-21T12:33:21;10.10;80.90
81315;DHT22;75773;52.534;5.686;2024-02-21T12:35:57;10.10;80.90
81315;DHT22;75773;52.534;5.686;2024-02-21T12:38:29;10.20;80.80
81315;DHT22;75773;52.534;5.686;2024-02-21T12:40:58;10.30;80.70
81315;DHT22;75773;52.534;5.686;2024-02-21T12:43:28;10.30;80.50
81315;DHT22;75773;52.534;5.686;2024-02-21T12:45:58;10.40;80.30
81315;DHT22;75773;52.534;5.686;2024-02-21T12:48:27;10.40;80.30
81315;DHT22;75773;52.534;5.686;2024-02-21T12:51:06;10.60;80.30
81315;DHT22;75773;52.534;5.686;2024-02-21T12:53:38;10.60;80.10
81315;DHT22;75773;52.534;5.686;2024-02-21T12:56:07;10.70;80.00
81315;DHT22;75773;52.534;5.686;2024-02-21T12:58:41;10.70;79.90
81315;DHT22;75773;52.534;5.686;2024-02-21T13:01:11;10.80;79.80
81315;DHT22;75773;52.534;5.686;2024-02-21T13:03:40;10.90;79.80
81315;DHT22;75773;52.534;5.686;2024-02-21T13:06:09;10.90;79.70
81315;DHT22;75773;52.534;5.686;2024-02-21T13:08:44;10.90;79.70
81315;DHT22;75773;52.534;5.686;2024-02-21T13:11:13;10.80;79.80
81315;DHT22;75773;52.534;5.686;2024-02-21T13:13:43;10.80;79.80
81315;DHT22;75773;52.534;5.686;2024-02-21T13:16:13;10.80;79.80
81315;DHT22;75773;52.534;5.686;2024-02-21T13:18:45;10.70;79.80
81315;DHT22;75773;52.534;5.686;2024-02-21T13:21:14;10.70;79.80
81315;DHT22;75773;52.534;5.686;2024-02-21T13:23:46;10.70;79.70
81315;DHT22;75773;52.534;5.686;2024-02-21T13:26:15;10.70;79.80
81315;DHT22;75773;52.534;5.686;2024-02-21T13:28:46;10.70;79.70
81315;DHT22;75773;52.534;5.686;2024-02-21T13:31:15;10.70;79.50
81315;DHT22;75773;52.534;5.686;2024-02-21T13:33:45;10.70;79.40
81315;DHT22;75773;52.534;5.686;2024-02-21T13:36:14;10.70;79.40
81315;DHT22;75773;52.534;5.686;2024-02-21T13:38:51;10.80;79.40
81315;DHT22;75773;52.534;5.686;2024-02-21T13:41:23;10.80;79.40
81315;DHT22;75773;52.534;5.686;2024-02-21T13:43:56;10.70;79.30
81315;DHT22;75773;52.534;5.686;2024-02-21T13:46:26;10.70;79.40
81315;DHT22;75773;52.534;5.686;2024-02-21T13:49:07;10.70;79.40
81315;DHT22;75773;52.534;5.686;2024-02-21T13:51:41;10.70;79.50
81315;DHT22;75773;52.534;5.686;2024-02-21T13:54:14;10.70;79.50
81315;DHT22;75773;52.534;5.686;2024-02-21T13:56:47;10.60;79.40
81315;DHT22;75773;52.534;5.686;2024-02-21T13:59:20;10.60;79.40
81315;DHT22;75773;52.534;5.686;2024-02-21T14:01:49;10.60;79.50
81315;DHT22;75773;52.534;5.686;2024-02-21T14:04:20;10.60;79.40
81315;DHT22;75773;52.534;5.686;2024-02-21T14:06:49;10.50;79.50
81315;DHT22;75773;52.534;5.686;2024-02-21T14:09:27;10.50;79.50
81315;DHT22;75773;52.534;5.686;2024-02-21T14:12:01;10.40;79.70
81315;DHT22;75773;52.534;5.686;2024-02-21T14:14:34;10.40;79.70
81315;DHT22;75773;52.534;5.686;2024-02-21T14:17:08;10.30;79.70
81315;DHT22;75773;52.534;5.686;2024-02-21T14:19:40;10.30;79.80
81315;DHT22;75773;52.534;5.686;2024-02-21T14:22:09;10.30;79.80
81315;DHT22;75773;52.534;5.686;2024-02-21T14:24:43;10.20;79.80
81315;DHT22;75773;52.534;5.686;2024-02-21T14:27:13;10.20;79.80
81315;DHT22;75773;52.534;5.686;2024-02-21T14:29:42;10.20;79.80
81315;DHT22;75773;52.534;5.686;2024-02-21T14:32:13;10.20;79.90
81315;DHT22;75773;52.534;5.686;2024-02-21T14:34:43;10.20;79.90
81315;DHT22;75773;52.534;5.686;2024-02-21T14:37:12;10.20;79.90
81315;DHT22;75773;52.534;5.686;2024-02-21T14:39:44;10.20;79.80
81315;DHT22;75773;52.534;5.686;2024-02-21T14:42:13;10.20;79.80
81315;DHT22;75773;52.534;5.686;2024-02-21T14:44:43;10.20;79.80
81315;DHT22;75773;52.534;5.686;2024-02-21T14:47:13;10.20;79.80
81315;DHT22;75773;52.534;5.686;2024-02-21T14:49:42;10.20;79.70
81315;DHT22;75773;52.534;5.686;2024-02-21T14:52:19;10.20;79.70
81315;DHT22;75773;52.534;5.686;2024-02-21T14:54:51;10.20;79.70
81315;DHT22;75773;52.534;5.686;2024-02-21T14:57:26;10.20;79.70
81315;DHT22;75773;52.534;5.686;2024-02-21T14:59:55;10.20;79.70
81315;DHT22;75773;52.534;5.686;2024-02-21T15:02:25;10.20;79.80
81315;DHT22;75773;52.534;5.686;2024-02-21T15:05:00;10.20;79.80
81315;DHT22;75773;52.534;5.686;2024-02-21T15:07:29;10.20;79.70
81315;DHT22;75773;52.534;5.686;2024-02-21T15:10:04;10.20;79.80
81315;DHT22;75773;52.534;5.686;2024-02-21T15:12:37;10.20;79.80
81315;DHT22;75773;52.534;5.686;2024-02-21T15:15:07;10.20;79.80
81315;DHT22;75773;52.534;5.686;2024-02-21T15:17:37;10.20;79.80
81315;DHT22;75773;52.534;5.686;2024-02-21T15:20:07;10.10;79.90
81315;DHT22;75773;52.534;5.686;2024-02-21T15:22:39;10.10;79.80
81315;DHT22;75773;52.534;5.686;2024-02-21T15:25:11;10.10;79.90
81315;DHT22;75773;52.534;5.686;2024-02-21T15:27:47;10.10;80.00
81315;DHT22;75773;52.534;5.686;2024-02-21T15:30:17;10.00;80.00
81315;DHT22;75773;52.534;5.686;2024-02-21T15:32:46;10.00;80.10
81315;DHT22;75773;52.534;5.686;2024-02-21T15:35:16;10.00;80.20
81315;DHT22;75773;52.534;5.686;2024-02-21T15:37:45;9.80;80.30
81315;DHT22;75773;52.534;5.686;2024-02-21T15:40:17;9.80;80.30
81315;DHT22;75773;52.534;5.686;2024-02-21T15:42:47;9.70;80.40
81315;DHT22;75773;52.534;5.686;2024-02-21T15:45:16;9.70;80.50
81315;DHT22;75773;52.534;5.686;2024-02-21T15:47:45;9.60;80.50
81315;DHT22;75773;52.534;5.686;2024-02-21T15:50:15;9.60;80.60
81315;DHT22;75773;52.534;5.686;2024-02-21T15:52:45;9.50;80.70
81315;DHT22;75773;52.534;5.686;2024-02-21T15:55:17;9.50;80.70
81315;DHT22;75773;52.534;5.686;2024-02-21T15:57:47;9.40;80.80
81315;DHT22;75773;52.534;5.686;2024-02-21T16:00:16;9.40;80.90
81315;DHT22;75773;52.534;5.686;2024-02-21T16:02:46;9.30;81.00
81315;DHT22;75773;52.534;5.686;2024-02-21T16:05:21;9.20;81.10
81315;DHT22;75773;52.534;5.686;2024-02-21T16:07:50;9.20;81.20
81315;DHT22;75773;52.534;5.686;2024-02-21T16:10:22;9.20;81.30